KMQI

Details ICAO KMQI
Name DARE CO RGNL
Region United States
Timezone America/New_York (UTC-5.0)
Plans Departing 6
Arriving 22
Stats Elevation 14 ft / 4 m (AMSL)
Location 35.919044° -75.695427°
Runways 2
Magnetic Variation 11.002° W
Sunrise 2017-12-18 12:09:12 UTC / 2017-12-18 07:09:12 Local
Sunset 2017-12-18 21:52:29 UTC / 2017-12-18 16:52:29 Local
Advertisement - Login to hide

Runways

ID Width Length Bearing (true) Bearing (mag) Surface Threshold Offset Overrun Length
05 100 ft / 30 m 4,303 ft / 1,312 m 37.92° 48.92° Asphalt 335 ft / 102 m 0 ft / 0 m
17 75 ft / 23 m 3,308 ft / 1,008 m 158.10° 169.10° Asphalt 300 ft / 91 m 0 ft / 0 m
23 100 ft / 30 m 4,303 ft / 1,312 m 217.93° 228.93° Asphalt 300 ft / 91 m 0 ft / 0 m
35 75 ft / 23 m 3,308 ft / 1,008 m 338.10° 349.10° Asphalt 1,000 ft / 305 m 0 ft / 0 m

Map

Weather


0- 5 10 15 20 25 30 35+ Temperature / ° C

Clouds and Precipitation
Forecast for 2017-12-18 06:00 UTC. Updated 2 hours ago

Ground ~20,000 ft ~40,000 ft Winds

METAR

KMQI 180705Z AUTO 25003KT 10SM OVC070 08/06 A3018 RMK AO2 T00750055

TAF

Not found

Frequencies

Recorded 128.27 MHz AWOS 3
Approach 124.72 MHz NORFOLK APP/DEP
Unicom 122.80 MHz CTAF/UNICOM
Warning: Do not use this data for real-world aviation or navigation. No guarantee of current accuracy is given.